ZMUB/ULN METAR and TAF weather

Enter ICAO airport designator
Station Type Date Time Source
ZMUB METAR 2021/09/24 00:00 UTC NOAA

ZMUB 240000Z VRB02MPS 9999 FEW033 05/M01 Q1018 NOSIG RMK QFE655.8 64 MOP


Station Type Date Time Source
ZMUB Decoded METAR 2021/09/24 00:00 UTC NOAA

Ulan-Bator, Mongolia (ZMUB) 47-51N 106-46E
Sep 23, 2021 - 08:00 PM EDT / 2021.09.24 0000 UTC
Wind: Variable at 4 MPH (4 KT):0
Visibility: greater than 7 mile(s):0
Sky conditions: mostly clear
Temperature: 41 F (5 C)
Dew Point: 30 F (-1 C)
Relative Humidity: 65%
Pressure (altimeter): 30.06 in. Hg (1018 hPa)
ob: ZMUB 240000Z VRB02MPS 9999 FEW033 05/M01 Q1018 NOSIG RMK QFE655.8 64 MOP
cycle: 0

Station Type Date Time Source
ZMUB TAF 2021/09/23 18:33 UTC NOAA

TAF TAF ZMUB 231630Z 2318/2424 VRB02MPS 9999 FEW030CB SCT033 TNM01/2322Z TX18/2407Z
BECMG 2320/2322 15007MPS

Example: see airport list